sensor_id;sensor_type;location;lat;lon;timestamp;pressure;altitude;pressure_sealevel;temperature;humidity
61014;BME280;46899;47.542;19.082;2023-04-21T00:02:17;100419.81;;;9.13;100.00
61014;BME280;46899;47.542;19.082;2023-04-21T00:05:19;100421.34;;;9.20;100.00
61014;BME280;46899;47.542;19.082;2023-04-21T00:08:22;100418.75;;;9.20;100.00
61014;BME280;46899;47.542;19.082;2023-04-21T00:11:25;100422.28;;;9.18;100.00
61014;BME280;46899;47.542;19.082;2023-04-21T00:14:28;100419.69;;;9.18;100.00
61014;BME280;46899;47.542;19.082;2023-04-21T00:17:30;100413.44;;;9.25;100.00
61014;BME280;46899;47.542;19.082;2023-04-21T00:20:33;100408.91;;;9.31;100.00
61014;BME280;46899;47.542;19.082;2023-04-21T00:23:35;100407.31;;;9.27;100.00
61014;BME280;46899;47.542;19.082;2023-04-21T00:26:38;100412.31;;;9.33;100.00
61014;BME280;46899;47.542;19.082;2023-04-21T00:29:41;100405.66;;;9.23;100.00
61014;BME280;46899;47.542;19.082;2023-04-21T00:32:44;100399.59;;;9.24;100.00
61014;BME280;46899;47.542;19.082;2023-04-21T00:35:46;100395.66;;;9.11;100.00
61014;BME280;46899;47.542;19.082;2023-04-21T00:38:49;100399.31;;;9.04;100.00
61014;BME280;46899;47.542;19.082;2023-04-21T00:41:52;100402.97;;;8.97;100.00
61014;BME280;46899;47.542;19.082;2023-04-21T00:44:54;100395.34;;;8.91;100.00
61014;BME280;46899;47.542;19.082;2023-04-21T00:47:57;100405.72;;;8.91;100.00
61014;BME280;46899;47.542;19.082;2023-04-21T00:51:00;100403.00;;;8.95;100.00
61014;BME280;46899;47.542;19.082;2023-04-21T00:54:03;100400.53;;;8.91;100.00
61014;BME280;46899;47.542;19.082;2023-04-21T00:57:08;100406.72;;;8.87;100.00
61014;BME280;46899;47.542;19.082;2023-04-21T01:00:11;100400.91;;;8.77;100.00
61014;BME280;46899;47.542;19.082;2023-04-21T01:03:13;100402.84;;;8.71;100.00
61014;BME280;46899;47.542;19.082;2023-04-21T01:06:35;100396.91;;;8.66;100.00
61014;BME280;46899;47.542;19.082;2023-04-21T01:09:37;100395.31;;;8.62;100.00
61014;BME280;46899;47.542;19.082;2023-04-21T01:12:43;100399.78;;;8.55;100.00
61014;BME280;46899;47.542;19.082;2023-04-21T01:15:47;100400.81;;;8.50;100.00
61014;BME280;46899;47.542;19.082;2023-04-21T01:18:49;100400.91;;;8.45;100.00
61014;BME280;46899;47.542;19.082;2023-04-21T01:21:53;100399.25;;;8.43;100.00
61014;BME280;46899;47.542;19.082;2023-04-21T01:24:58;100395.88;;;8.39;100.00
61014;BME280;46899;47.542;19.082;2023-04-21T01:28:01;100396.00;;;8.35;100.00
61014;BME280;46899;47.542;19.082;2023-04-21T01:31:04;100395.22;;;8.31;100.00
61014;BME280;46899;47.542;19.082;2023-04-21T01:34:07;100397.94;;;8.27;100.00
61014;BME280;46899;47.542;19.082;2023-04-21T01:37:11;100395.41;;;8.22;100.00
61014;BME280;46899;47.542;19.082;2023-04-21T01:40:14;100396.25;;;8.22;100.00
61014;BME280;46899;47.542;19.082;2023-04-21T01:43:18;100389.47;;;8.18;100.00
61014;BME280;46899;47.542;19.082;2023-04-21T01:46:21;100386.94;;;8.15;100.00
61014;BME280;46899;47.542;19.082;2023-04-21T01:49:24;100386.19;;;8.10;100.00
61014;BME280;46899;47.542;19.082;2023-04-21T01:52:27;100391.47;;;8.07;100.00
61014;BME280;46899;47.542;19.082;2023-04-21T01:55:29;100386.28;;;8.07;100.00
61014;BME280;46899;47.542;19.082;2023-04-21T01:58:32;100385.50;;;8.04;100.00
61014;BME280;46899;47.542;19.082;2023-04-21T02:01:34;100385.53;;;8.02;100.00
61014;BME280;46899;47.542;19.082;2023-04-21T02:04:37;100383.88;;;8.00;100.00
61014;BME280;46899;47.542;19.082;2023-04-21T02:07:40;100386.56;;;7.95;100.00
61014;BME280;46899;47.542;19.082;2023-04-21T02:10:43;100383.97;;;7.95;100.00
61014;BME280;46899;47.542;19.082;2023-04-21T02:13:46;100390.94;;;7.93;100.00
61014;BME280;46899;47.542;19.082;2023-04-21T02:16:48;100382.38;;;7.90;100.00
61014;BME280;46899;47.542;19.082;2023-04-21T02:19:51;100393.66;;;7.87;100.00
61014;BME280;46899;47.542;19.082;2023-04-21T02:22:55;100394.69;;;7.82;100.00
61014;BME280;46899;47.542;19.082;2023-04-21T02:25:58;100394.78;;;7.77;100.00
61014;BME280;46899;47.542;19.082;2023-04-21T02:29:00;100388.75;;;7.75;100.00
61014;BME280;46899;47.542;19.082;2023-04-21T02:32:04;100384.53;;;7.71;100.00
61014;BME280;46899;47.542;19.082;2023-04-21T02:35:25;100390.59;;;7.70;100.00
61014;BME280;46899;47.542;19.082;2023-04-21T02:38:28;100396.69;;;7.69;100.00
61014;BME280;46899;47.542;19.082;2023-04-21T02:41:31;100392.47;;;7.65;100.00
61014;BME280;46899;47.542;19.082;2023-04-21T02:44:37;100383.78;;;7.66;100.00
61014;BME280;46899;47.542;19.082;2023-04-21T02:47:41;100397.66;;;7.65;100.00
61014;BME280;46899;47.542;19.082;2023-04-21T02:50:44;100394.22;;;7.63;100.00
61014;BME280;46899;47.542;19.082;2023-04-21T02:53:46;100396.00;;;7.61;100.00
61014;BME280;46899;47.542;19.082;2023-04-21T02:56:49;100399.34;;;7.66;100.00
61014;BME280;46899;47.542;19.082;2023-04-21T02:59:51;100401.06;;;7.66;100.00
61014;BME280;46899;47.542;19.082;2023-04-21T03:02:54;100402.03;;;7.62;100.00
61014;BME280;46899;47.542;19.082;2023-04-21T03:05:57;100406.22;;;7.67;100.00
61014;BME280;46899;47.542;19.082;2023-04-21T03:09:00;100405.16;;;7.76;100.00
61014;BME280;46899;47.542;19.082;2023-04-21T03:12:02;100407.53;;;7.86;100.00
61014;BME280;46899;47.542;19.082;2023-04-21T03:15:05;100409.28;;;7.84;100.00
61014;BME280;46899;47.542;19.082;2023-04-21T03:18:09;100412.91;;;7.77;100.00
61014;BME280;46899;47.542;19.082;2023-04-21T03:21:11;100408.66;;;7.73;100.00
61014;BME280;46899;47.542;19.082;2023-04-21T03:24:14;100415.41;;;7.80;100.00
61014;BME280;46899;47.542;19.082;2023-04-21T03:27:16;100412.97;;;7.74;100.00
61014;BME280;46899;47.542;19.082;2023-04-21T03:30:20;100422.06;;;7.92;100.00
61014;BME280;46899;47.542;19.082;2023-04-21T03:33:25;100422.84;;;7.95;100.00
61014;BME280;46899;47.542;19.082;2023-04-21T03:36:27;100421.06;;;7.97;100.00
61014;BME280;46899;47.542;19.082;2023-04-21T03:39:31;100422.16;;;7.87;100.00
61014;BME280;46899;47.542;19.082;2023-04-21T03:42:34;100421.00;;;8.00;100.00
61014;BME280;46899;47.542;19.082;2023-04-21T03:45:37;100430.47;;;8.01;100.00
61014;BME280;46899;47.542;19.082;2023-04-21T03:48:40;100429.53;;;8.05;100.00
61014;BME280;46899;47.542;19.082;2023-04-21T03:51:42;100432.12;;;8.04;100.00
61014;BME280;46899;47.542;19.082;2023-04-21T03:54:45;100426.09;;;8.03;100.00
61014;BME280;46899;47.542;19.082;2023-04-21T03:57:48;100435.62;;;8.03;100.00
61014;BME280;46899;47.542;19.082;2023-04-21T04:00:50;100427.09;;;7.98;100.00
61014;BME280;46899;47.542;19.082;2023-04-21T04:03:53;100437.41;;;7.99;100.00
61014;BME280;46899;47.542;19.082;2023-04-21T04:06:56;100439.12;;;8.00;100.00
61014;BME280;46899;47.542;19.082;2023-04-21T04:09:58;100438.31;;;7.98;100.00
61014;BME280;46899;47.542;19.082;2023-04-21T04:13:01;100442.50;;;8.04;100.00
61014;BME280;46899;47.542;19.082;2023-04-21T04:16:04;100444.28;;;8.02;100.00
61014;BME280;46899;47.542;19.082;2023-04-21T04:19:06;100445.94;;;8.04;100.00
61014;BME280;46899;47.542;19.082;2023-04-21T04:22:10;100454.31;;;8.15;100.00
61014;BME280;46899;47.542;19.082;2023-04-21T04:25:12;100457.69;;;8.19;100.00
61014;BME280;46899;47.542;19.082;2023-04-21T04:28:18;100458.38;;;8.27;100.00
61014;BME280;46899;47.542;19.082;2023-04-21T04:31:23;100459.06;;;8.35;100.00
61014;BME280;46899;47.542;19.082;2023-04-21T04:34:27;100460.63;;;8.42;100.00
61014;BME280;46899;47.542;19.082;2023-04-21T04:37:29;100470.59;;;8.57;100.00
61014;BME280;46899;47.542;19.082;2023-04-21T04:40:33;100464.19;;;8.72;100.00
61014;BME280;46899;47.542;19.082;2023-04-21T04:43:35;100462.69;;;8.95;97.37
61014;BME280;46899;47.542;19.082;2023-04-21T04:46:40;100464.75;;;9.15;95.18
61014;BME280;46899;47.542;19.082;2023-04-21T04:49:42;100467.63;;;9.35;92.58
61014;BME280;46899;47.542;19.082;2023-04-21T04:52:45;100474.87;;;9.55;90.47
61014;BME280;46899;47.542;19.082;2023-04-21T04:55:48;100476.78;;;9.78;88.29
61014;BME280;46899;47.542;19.082;2023-04-21T04:58:51;100471.37;;;9.85;87.50
61014;BME280;46899;47.542;19.082;2023-04-21T05:01:53;100474.63;;;9.92;86.58
61014;BME280;46899;47.542;19.082;2023-04-21T05:04:56;100472.66;;;10.00;85.47
61014;BME280;46899;47.542;19.082;2023-04-21T05:07:59;100464.22;;;10.21;84.75
61014;BME280;46899;47.542;19.082;2023-04-21T05:11:02;100468.25;;;10.31;83.35
61014;BME280;46899;47.542;19.082;2023-04-21T05:14:04;100474.75;;;10.44;82.61
61014;BME280;46899;47.542;19.082;2023-04-21T05:17:07;100471.75;;;10.56;81.30
61014;BME280;46899;47.542;19.082;2023-04-21T05:20:10;100469.38;;;10.75;80.65
61014;BME280;46899;47.542;19.082;2023-04-21T05:23:13;100469.69;;;10.90;78.85
61014;BME280;46899;47.542;19.082;2023-04-21T05:26:15;100461.44;;;11.04;78.02
61014;BME280;46899;47.542;19.082;2023-04-21T05:29:18;100467.56;;;11.26;76.91
61014;BME280;46899;47.542;19.082;2023-04-21T05:32:20;100466.25;;;11.38;75.80
61014;BME280;46899;47.542;19.082;2023-04-21T05:35:24;100473.53;;;11.53;74.44
61014;BME280;46899;47.542;19.082;2023-04-21T05:38:26;100466.41;;;11.81;72.45
61014;BME280;46899;47.542;19.082;2023-04-21T05:41:29;100474.81;;;12.32;69.95
61014;BME280;46899;47.542;19.082;2023-04-21T05:44:32;100471.72;;;12.65;66.30
61014;BME280;46899;47.542;19.082;2023-04-21T05:47:34;100463.84;;;12.66;65.89
61014;BME280;46899;47.542;19.082;2023-04-21T05:50:38;100471.63;;;12.88;65.05
61014;BME280;46899;47.542;19.082;2023-04-21T05:53:41;100479.62;;;13.25;62.18
61014;BME280;46899;47.542;19.082;2023-04-21T05:56:44;100484.19;;;13.20;61.51
61014;BME280;46899;47.542;19.082;2023-04-21T05:59:49;100480.19;;;13.32;60.13
61014;BME280;46899;47.542;19.082;2023-04-21T06:02:51;100484.87;;;13.44;58.00
61014;BME280;46899;47.542;19.082;2023-04-21T06:05:54;100473.75;;;13.96;56.00
61014;BME280;46899;47.542;19.082;2023-04-21T06:08:57;100485.25;;;14.99;51.92
61014;BME280;46899;47.542;19.082;2023-04-21T06:11:59;100483.88;;;16.83;46.39
61014;BME280;46899;47.542;19.082;2023-04-21T06:15:02;100486.22;;;18.69;41.16
61014;BME280;46899;47.542;19.082;2023-04-21T06:18:05;100482.09;;;20.40;37.65
61014;BME280;46899;47.542;19.082;2023-04-21T06:21:08;100484.63;;;23.07;32.30
61014;BME280;46899;47.542;19.082;2023-04-21T06:24:11;100484.81;;;24.46;29.24
61014;BME280;46899;47.542;19.082;2023-04-21T06:27:14;100479.59;;;24.25;28.91
61014;BME280;46899;47.542;19.082;2023-04-21T06:30:17;100485.31;;;25.82;26.79
61014;BME280;46899;47.542;19.082;2023-04-21T06:33:19;100483.00;;;28.47;23.44
61014;BME280;46899;47.542;19.082;2023-04-21T06:36:22;100487.87;;;29.40;22.30
61014;BME280;46899;47.542;19.082;2023-04-21T06:39:25;100476.59;;;30.38;20.85
61014;BME280;46899;47.542;19.082;2023-04-21T06:42:28;100474.72;;;31.88;19.34
61014;BME280;46899;47.542;19.082;2023-04-21T06:45:30;100469.22;;;32.11;19.14
61014;BME280;46899;47.542;19.082;2023-04-21T06:48:33;100483.50;;;33.04;18.21
61014;BME280;46899;47.542;19.082;2023-04-21T06:51:37;100481.66;;;32.48;18.50
61014;BME280;46899;47.542;19.082;2023-04-21T06:54:39;100479.62;;;32.71;18.06
61014;BME280;46899;47.542;19.082;2023-04-21T06:57:42;100474.84;;;31.28;18.82
61014;BME280;46899;47.542;19.082;2023-04-21T07:00:44;100478.09;;;32.62;17.71
61014;BME280;46899;47.542;19.082;2023-04-21T07:03:52;100467.25;;;32.76;17.43
61014;BME280;46899;47.542;19.082;2023-04-21T07:06:55;100480.47;;;32.92;17.18
61014;BME280;46899;47.542;19.082;2023-04-21T07:09:57;100467.25;;;32.19;17.72
61014;BME280;46899;47.542;19.082;2023-04-21T07:13:00;100470.25;;;32.10;18.09
61014;BME280;46899;47.542;19.082;2023-04-21T07:16:02;100468.97;;;32.27;17.73
61014;BME280;46899;47.542;19.082;2023-04-21T07:19:05;100470.25;;;33.71;16.79
61014;BME280;46899;47.542;19.082;2023-04-21T07:22:08;100464.78;;;33.02;17.13
61014;BME280;46899;47.542;19.082;2023-04-21T07:25:11;100465.62;;;32.61;17.22
61014;BME280;46899;47.542;19.082;2023-04-21T07:28:13;100466.00;;;31.57;18.54
61014;BME280;46899;47.542;19.082;2023-04-21T07:31:17;100462.91;;;31.31;18.46
61014;BME280;46899;47.542;19.082;2023-04-21T07:34:20;100465.62;;;32.82;17.42
61014;BME280;46899;47.542;19.082;2023-04-21T07:37:22;100464.19;;;32.86;17.49
61014;BME280;46899;47.542;19.082;2023-04-21T07:40:26;100460.19;;;33.24;17.31
61014;BME280;46899;47.542;19.082;2023-04-21T07:43:28;100467.06;;;34.02;16.45
61014;BME280;46899;47.542;19.082;2023-04-21T07:46:32;100454.09;;;32.10;18.02
61014;BME280;46899;47.542;19.082;2023-04-21T07:49:35;100457.97;;;32.43;17.91
61014;BME280;46899;47.542;19.082;2023-04-21T07:52:37;100461.47;;;31.43;18.85
61014;BME280;46899;47.542;19.082;2023-04-21T07:55:41;100456.59;;;28.60;20.73
61014;BME280;46899;47.542;19.082;2023-04-21T07:58:43;100450.22;;;27.95;21.43
61014;BME280;46899;47.542;19.082;2023-04-21T08:01:46;100462.19;;;25.36;24.03
61014;BME280;46899;47.542;19.082;2023-04-21T08:04:49;100466.22;;;25.77;24.11
61014;BME280;46899;47.542;19.082;2023-04-21T08:07:52;100452.81;;;26.23;23.62
61014;BME280;46899;47.542;19.082;2023-04-21T08:10:54;100453.38;;;25.26;24.60
61014;BME280;46899;47.542;19.082;2023-04-21T08:13:57;100445.72;;;25.60;23.64
61014;BME280;46899;47.542;19.082;2023-04-21T08:17:00;100445.06;;;23.86;25.95
61014;BME280;46899;47.542;19.082;2023-04-21T08:20:03;100443.09;;;25.77;24.10
61014;BME280;46899;47.542;19.082;2023-04-21T08:23:06;100441.56;;;27.08;22.06
61014;BME280;46899;47.542;19.082;2023-04-21T08:26:08;100446.66;;;28.53;21.25
61014;BME280;46899;47.542;19.082;2023-04-21T08:29:11;100444.13;;;26.92;22.79
61014;BME280;46899;47.542;19.082;2023-04-21T08:32:14;100442.59;;;25.92;23.64
61014;BME280;46899;47.542;19.082;2023-04-21T08:35:17;100444.69;;;27.55;22.57
61014;BME280;46899;47.542;19.082;2023-04-21T08:38:19;100447.19;;;28.88;20.15
61014;BME280;46899;47.542;19.082;2023-04-21T08:41:23;100443.09;;;28.20;20.72
61014;BME280;46899;47.542;19.082;2023-04-21T08:44:25;100436.31;;;28.50;20.87
61014;BME280;46899;47.542;19.082;2023-04-21T08:47:28;100444.22;;;28.01;20.71
61014;BME280;46899;47.542;19.082;2023-04-21T08:50:31;100439.16;;;26.44;22.31
61014;BME280;46899;47.542;19.082;2023-04-21T08:53:35;100438.00;;;25.57;23.41
61014;BME280;46899;47.542;19.082;2023-04-21T08:56:38;100423.06;;;24.23;24.82
61014;BME280;46899;47.542;19.082;2023-04-21T08:59:41;100420.63;;;23.61;25.84
61014;BME280;46899;47.542;19.082;2023-04-21T09:02:53;100420.41;;;24.23;24.85
61014;BME280;46899;47.542;19.082;2023-04-21T09:06:03;100420.69;;;24.49;24.85
61014;BME280;46899;47.542;19.082;2023-04-21T09:09:07;100416.03;;;24.22;25.12
61014;BME280;46899;47.542;19.082;2023-04-21T09:12:10;100429.12;;;22.00;28.04
61014;BME280;46899;47.542;19.082;2023-04-21T09:15:12;100416.78;;;20.88;29.71
61014;BME280;46899;47.542;19.082;2023-04-21T09:18:19;100424.53;;;21.13;30.41
61014;BME280;46899;47.542;19.082;2023-04-21T09:21:22;100416.50;;;20.80;30.35
61014;BME280;46899;47.542;19.082;2023-04-21T09:24:30;100416.47;;;20.58;30.92
61014;BME280;46899;47.542;19.082;2023-04-21T09:27:36;100405.03;;;20.22;31.75
61014;BME280;46899;47.542;19.082;2023-04-21T09:30:39;100405.69;;;20.72;31.07
61014;BME280;46899;47.542;19.082;2023-04-21T09:33:45;100411.13;;;20.92;30.75
61014;BME280;46899;47.542;19.082;2023-04-21T09:37:01;100399.28;;;21.09;31.30
61014;BME280;46899;47.542;19.082;2023-04-21T09:40:06;100400.00;;;21.44;30.25
61014;BME280;46899;47.542;19.082;2023-04-21T09:43:09;100398.53;;;21.62;29.96
61014;BME280;46899;47.542;19.082;2023-04-21T09:46:14;100390.03;;;20.58;31.67
61014;BME280;46899;47.542;19.082;2023-04-21T09:49:17;100399.41;;;21.07;31.56
61014;BME280;46899;47.542;19.082;2023-04-21T09:52:21;100382.59;;;21.20;30.78
61014;BME280;46899;47.542;19.082;2023-04-21T09:55:27;100389.03;;;20.93;30.96
61014;BME280;46899;47.542;19.082;2023-04-21T09:58:30;100380.47;;;20.90;31.17
61014;BME280;46899;47.542;19.082;2023-04-21T10:01:36;100377.75;;;21.13;31.08
61014;BME280;46899;47.542;19.082;2023-04-21T10:04:40;100384.31;;;20.86;31.63
61014;BME280;46899;47.542;19.082;2023-04-21T10:07:44;100378.16;;;20.63;31.64
61014;BME280;46899;47.542;19.082;2023-04-21T10:10:47;100370.41;;;21.28;31.51
61014;BME280;46899;47.542;19.082;2023-04-21T10:13:50;100367.50;;;21.64;31.30
61014;BME280;46899;47.542;19.082;2023-04-21T10:17:05;100368.16;;;22.00;29.98
61014;BME280;46899;47.542;19.082;2023-04-21T10:20:08;100362.09;;;22.09;29.75
61014;BME280;46899;47.542;19.082;2023-04-21T10:23:20;100363.72;;;21.89;30.42
61014;BME280;46899;47.542;19.082;2023-04-21T10:26:33;100371.47;;;21.59;30.67
61014;BME280;46899;47.542;19.082;2023-04-21T10:29:36;100367.41;;;21.33;31.19
61014;BME280;46899;47.542;19.082;2023-04-21T10:33:03;100359.69;;;20.39;32.11
61014;BME280;46899;47.542;19.082;2023-04-21T10:36:09;100372.25;;;20.25;32.72
61014;BME280;46899;47.542;19.082;2023-04-21T10:39:28;100358.66;;;20.64;32.23
61014;BME280;46899;47.542;19.082;2023-04-21T10:42:33;100360.78;;;20.48;32.12
61014;BME280;46899;47.542;19.082;2023-04-21T10:45:36;100353.59;;;20.61;33.20
61014;BME280;46899;47.542;19.082;2023-04-21T10:48:39;100337.25;;;21.78;30.56
61014;BME280;46899;47.542;19.082;2023-04-21T10:55:05;100336.50;;;21.33;31.02
61014;BME280;46899;47.542;19.082;2023-04-21T10:58:08;100334.91;;;21.96;29.94
61014;BME280;46899;47.542;19.082;2023-04-21T11:01:11;100334.19;;;22.46;29.50
61014;BME280;46899;47.542;19.082;2023-04-21T11:04:17;100334.06;;;22.89;28.95
61014;BME280;46899;47.542;19.082;2023-04-21T11:07:24;100323.47;;;23.29;29.10
61014;BME280;46899;47.542;19.082;2023-04-21T11:10:26;100324.22;;;23.00;29.09
61014;BME280;46899;47.542;19.082;2023-04-21T11:13:29;100325.16;;;22.69;29.19
61014;BME280;46899;47.542;19.082;2023-04-21T11:16:34;100323.12;;;22.41;29.28
61014;BME280;46899;47.542;19.082;2023-04-21T11:19:39;100328.69;;;22.38;28.94
61014;BME280;46899;47.542;19.082;2023-04-21T11:22:42;100324.28;;;22.07;29.16
61014;BME280;46899;47.542;19.082;2023-04-21T11:25:45;100322.19;;;21.78;29.44
61014;BME280;46899;47.542;19.082;2023-04-21T11:28:49;100316.19;;;21.65;30.43
61014;BME280;46899;47.542;19.082;2023-04-21T11:31:52;100316.72;;;21.59;30.20
61014;BME280;46899;47.542;19.082;2023-04-21T11:34:55;100315.13;;;20.57;31.94
61014;BME280;46899;47.542;19.082;2023-04-21T11:37:57;100324.91;;;20.79;32.59
61014;BME280;46899;47.542;19.082;2023-04-21T11:41:05;100317.41;;;20.51;32.06
61014;BME280;46899;47.542;19.082;2023-04-21T11:44:09;100311.63;;;20.45;32.19
61014;BME280;46899;47.542;19.082;2023-04-21T11:47:12;100307.28;;;20.44;31.89
61014;BME280;46899;47.542;19.082;2023-04-21T11:50:31;100315.75;;;20.94;31.83
61014;BME280;46899;47.542;19.082;2023-04-21T11:53:33;100312.78;;;20.30;32.27
61014;BME280;46899;47.542;19.082;2023-04-21T11:56:36;100311.94;;;20.98;31.25
61014;BME280;46899;47.542;19.082;2023-04-21T11:59:39;100308.56;;;21.29;30.97
61014;BME280;46899;47.542;19.082;2023-04-21T12:02:43;100304.44;;;22.22;30.25
61014;BME280;46899;47.542;19.082;2023-04-21T12:05:46;100294.09;;;22.60;29.31
61014;BME280;46899;47.542;19.082;2023-04-21T12:08:53;100288.06;;;22.79;28.86
61014;BME280;46899;47.542;19.082;2023-04-21T12:11:57;100293.97;;;23.22;28.41
61014;BME280;46899;47.542;19.082;2023-04-21T12:15:00;100288.16;;;23.38;28.02
61014;BME280;46899;47.542;19.082;2023-04-21T12:18:04;100282.66;;;22.90;27.88
61014;BME280;46899;47.542;19.082;2023-04-21T12:21:14;100284.72;;;22.56;28.19
61014;BME280;46899;47.542;19.082;2023-04-21T12:24:17;100277.19;;;21.67;29.85
61014;BME280;46899;47.542;19.082;2023-04-21T12:27:20;100285.75;;;21.60;30.24
61014;BME280;46899;47.542;19.082;2023-04-21T12:30:23;100287.72;;;21.47;30.10
61014;BME280;46899;47.542;19.082;2023-04-21T12:33:25;100285.22;;;21.23;31.70
61014;BME280;46899;47.542;19.082;2023-04-21T12:36:29;100280.28;;;20.96;31.47
61014;BME280;46899;47.542;19.082;2023-04-21T12:39:32;100277.41;;;20.99;31.29
61014;BME280;46899;47.542;19.082;2023-04-21T12:42:34;100284.37;;;20.89;31.19
61014;BME280;46899;47.542;19.082;2023-04-21T12:45:39;100276.09;;;20.61;32.07
61014;BME280;46899;47.542;19.082;2023-04-21T12:48:42;100278.25;;;20.78;31.72
61014;BME280;46899;47.542;19.082;2023-04-21T12:51:45;100271.53;;;20.74;32.00
61014;BME280;46899;47.542;19.082;2023-04-21T12:54:48;100279.09;;;20.89;31.52
61014;BME280;46899;47.542;19.082;2023-04-21T12:57:51;100274.91;;;20.98;31.55
61014;BME280;46899;47.542;19.082;2023-04-21T13:00:57;100272.25;;;21.31;31.58
61014;BME280;46899;47.542;19.082;2023-04-21T13:03:59;100264.53;;;21.28;31.21
61014;BME280;46899;47.542;19.082;2023-04-21T13:07:02;100265.16;;;21.09;30.29
61014;BME280;46899;47.542;19.082;2023-04-21T13:10:05;100269.12;;;20.93;30.42
61014;BME280;46899;47.542;19.082;2023-04-21T13:13:08;100258.16;;;20.64;31.28
61014;BME280;46899;47.542;19.082;2023-04-21T13:16:10;100261.19;;;20.60;31.87
61014;BME280;46899;47.542;19.082;2023-04-21T13:19:13;100261.97;;;20.38;31.47
61014;BME280;46899;47.542;19.082;2023-04-21T13:22:15;100261.31;;;20.58;31.76
61014;BME280;46899;47.542;19.082;2023-04-21T13:25:18;100257.09;;;20.21;31.88
61014;BME280;46899;47.542;19.082;2023-04-21T13:28:21;100261.91;;;20.62;31.60
61014;BME280;46899;47.542;19.082;2023-04-21T13:31:24;100257.81;;;20.80;31.21
61014;BME280;46899;47.542;19.082;2023-04-21T13:34:28;100257.91;;;20.89;31.51
61014;BME280;46899;47.542;19.082;2023-04-21T13:37:31;100254.22;;;20.81;32.37
61014;BME280;46899;47.542;19.082;2023-04-21T13:40:33;100249.88;;;21.13;31.64
61014;BME280;46899;47.542;19.082;2023-04-21T13:43:36;100246.72;;;21.30;31.49
61014;BME280;46899;47.542;19.082;2023-04-21T13:46:39;100246.47;;;21.33;31.39
61014;BME280;46899;47.542;19.082;2023-04-21T13:49:42;100246.00;;;21.28;31.86
61014;BME280;46899;47.542;19.082;2023-04-21T13:52:44;100247.66;;;21.40;31.46
61014;BME280;46899;47.542;19.082;2023-04-21T13:55:47;100241.63;;;21.49;31.57
61014;BME280;46899;47.542;19.082;2023-04-21T13:58:50;100233.03;;;21.57;31.48
61014;BME280;46899;47.542;19.082;2023-04-21T14:01:52;100236.16;;;21.19;31.03
61014;BME280;46899;47.542;19.082;2023-04-21T14:04:55;100231.84;;;20.96;31.92
61014;BME280;46899;47.542;19.082;2023-04-21T14:07:58;100230.16;;;20.95;31.66
61014;BME280;46899;47.542;19.082;2023-04-21T14:11:02;100231.59;;;20.66;32.25
61014;BME280;46899;47.542;19.082;2023-04-21T14:14:04;100219.22;;;20.33;33.03
61014;BME280;46899;47.542;19.082;2023-04-21T14:17:11;100221.22;;;20.18;33.10
61014;BME280;46899;47.542;19.082;2023-04-21T14:20:14;100213.09;;;20.32;33.42
61014;BME280;46899;47.542;19.082;2023-04-21T14:23:17;100214.81;;;20.10;33.67
61014;BME280;46899;47.542;19.082;2023-04-21T14:26:20;100209.84;;;19.83;33.79
61014;BME280;46899;47.542;19.082;2023-04-21T14:29:23;100214.38;;;19.81;33.19
61014;BME280;46899;47.542;19.082;2023-04-21T14:32:25;100208.38;;;19.79;33.93
61014;BME280;46899;47.542;19.082;2023-04-21T14:35:28;100213.28;;;19.72;33.81
61014;BME280;46899;47.542;19.082;2023-04-21T14:38:32;100208.97;;;19.48;33.77
61014;BME280;46899;47.542;19.082;2023-04-21T14:41:34;100201.09;;;19.35;34.18
61014;BME280;46899;47.542;19.082;2023-04-21T14:44:37;100204.78;;;19.33;34.38
61014;BME280;46899;47.542;19.082;2023-04-21T14:47:40;100202.19;;;19.20;34.56
61014;BME280;46899;47.542;19.082;2023-04-21T14:50:43;100198.12;;;19.16;34.09
61014;BME280;46899;47.542;19.082;2023-04-21T14:53:46;100197.34;;;19.03;34.26
61014;BME280;46899;47.542;19.082;2023-04-21T14:56:49;100190.19;;;18.92;34.97
61014;BME280;46899;47.542;19.082;2023-04-21T14:59:52;100193.91;;;18.77;35.37
61014;BME280;46899;47.542;19.082;2023-04-21T15:02:54;100187.69;;;18.66;35.23
61014;BME280;46899;47.542;19.082;2023-04-21T15:05:57;100188.75;;;18.76;36.04
61014;BME280;46899;47.542;19.082;2023-04-21T15:09:00;100187.50;;;18.69;35.17
61014;BME280;46899;47.542;19.082;2023-04-21T15:12:03;100184.44;;;18.62;35.40
61014;BME280;46899;47.542;19.082;2023-04-21T15:15:05;100182.09;;;18.70;34.99
61014;BME280;46899;47.542;19.082;2023-04-21T15:18:08;100180.56;;;18.91;34.95
61014;BME280;46899;47.542;19.082;2023-04-21T15:21:11;100176.37;;;19.12;34.46
61014;BME280;46899;47.542;19.082;2023-04-21T15:24:14;100178.78;;;19.16;34.41
61014;BME280;46899;47.542;19.082;2023-04-21T15:27:17;100179.63;;;18.92;34.10
61014;BME280;46899;47.542;19.082;2023-04-21T15:30:19;100176.19;;;18.79;34.70
61014;BME280;46899;47.542;19.082;2023-04-21T15:33:22;100168.16;;;18.81;34.15
61014;BME280;46899;47.542;19.082;2023-04-21T15:36:24;100178.22;;;18.63;34.54
61014;BME280;46899;47.542;19.082;2023-04-21T15:39:28;100169.44;;;18.75;34.78
61014;BME280;46899;47.542;19.082;2023-04-21T15:42:31;100171.41;;;18.84;34.43
61014;BME280;46899;47.542;19.082;2023-04-21T15:46:03;100166.25;;;19.43;33.60
61014;BME280;46899;47.542;19.082;2023-04-21T15:49:14;100166.25;;;19.43;33.60
61014;BME280;46899;47.542;19.082;2023-04-21T15:52:17;100158.84;;;19.00;34.56